Time;durP1;ratioP1;P1;durP2;ratioP2;P2;SDS_P1;SDS_P2;PMS_P1;PMS_P2;Temp;Humidity;BMP_temperature;BMP_pressure;BME280_temperature;BME280_humidity;BME280_pressure;Samples;Min_cycle;Max_cycle;Signal;HPM_P1;HPM_P2
2022/06/08 00:02:22;;;;;;;21.70;19.08;;;;;;;16.56;100.00;99242.72;5091838;28;20403;-76
2022/06/08 00:04:48;;;;;;;23.63;20.67;;;;;;;16.55;100.00;99248.94;5092322;28;20020;-76
2022/06/08 00:07:13;;;;;;;23.10;20.65;;;;;;;16.51;100.00;99240.44;5092287;28;20506;-76
2022/06/08 00:09:40;;;;;;;21.30;18.60;;;;;;;16.53;100.00;99251.69;5092350;28;20103;-77
2022/06/08 00:12:06;;;;;;;25.20;19.92;;;;;;;16.47;100.00;99236.38;5091982;28;20067;-77
2022/06/08 00:14:32;;;;;;;20.38;18.33;;;;;;;16.52;100.00;99242.13;5092047;28;20028;-77
2022/06/08 00:16:57;;;;;;;20.98;18.92;;;;;;;16.46;100.00;99243.44;5090524;28;20055;-76
2022/06/08 00:19:23;;;;;;;21.40;19.27;;;;;;;16.43;100.00;99238.44;5092019;28;20093;-76
2022/06/08 00:21:48;;;;;;;20.38;18.38;;;;;;;16.50;100.00;99244.03;5092442;28;20085;-76
2022/06/08 00:24:14;;;;;;;20.50;18.50;;;;;;;16.45;100.00;99241.75;5091624;28;20455;-76
2022/06/08 00:26:39;;;;;;;21.40;19.08;;;;;;;16.44;100.00;99236.63;5091934;28;20024;-77
2022/06/08 00:29:06;;;;;;;20.92;18.85;;;;;;;16.44;100.00;99237.47;5091724;28;20034;-77
2022/06/08 00:31:32;;;;;;;20.60;18.25;;;;;;;16.39;100.00;99226.47;5091726;28;20471;-76
2022/06/08 00:33:57;;;;;;;22.77;20.48;;;;;;;16.44;100.00;99232.22;5073927;28;20039;-76
2022/06/08 00:36:23;;;;;;;19.92;17.95;;;;;;;16.41;100.00;99221.09;5091708;28;20028;-77
2022/06/08 00:38:49;;;;;;;21.15;18.92;;;;;;;16.40;100.00;99219.44;5091932;28;20028;-76
2022/06/08 00:41:44;;;;;;;24.45;20.02;;;;;;;16.43;100.00;99227.91;5095379;28;20032;-76
2022/06/08 00:44:26;;;;;;;21.27;19.20;;;;;;;16.38;100.00;99222.16;5095338;28;20107;-76
2022/06/08 00:46:52;;;;;;;22.83;20.50;;;;;;;16.31;100.00;99212.25;5095950;28;20039;-76
2022/06/08 00:49:31;;;;;;;22.40;20.05;;;;;;;16.31;100.00;99210.47;5095844;28;20059;-76
2022/06/08 00:51:59;;;;;;;21.52;19.17;;;;;;;16.26;100.00;99209.97;5095655;28;20065;-76
2022/06/08 00:54:31;;;;;;;20.85;18.83;;;;;;;16.29;100.00;99212.34;5095153;28;20837;-77
2022/06/08 00:57:07;;;;;;;22.02;19.73;;;;;;;16.25;100.00;99204.84;5095640;28;20031;-76
2022/06/08 00:59:36;;;;;;;21.02;19.02;;;;;;;16.17;100.00;99198.38;5095524;28;20024;-76
2022/06/08 01:02:02;;;;;;;21.08;18.90;;;;;;;16.14;100.00;99198.63;5095202;28;20052;-76
2022/06/08 01:04:29;;;;;;;23.20;20.85;;;;;;;16.19;100.00;99211.41;5095088;28;20059;-76
2022/06/08 01:06:57;;;;;;;23.75;21.38;;;;;;;16.15;100.00;99207.34;5095245;28;20028;-76
2022/06/08 01:09:33;;;;;;;25.05;22.45;;;;;;;16.17;100.00;99205.41;5095195;28;20029;-76
2022/06/08 01:12:01;;;;;;;23.80;21.40;;;;;;;16.10;100.00;99197.19;5095359;28;20089;-76
2022/06/08 01:14:27;;;;;;;26.83;24.00;;;;;;;16.08;100.00;99196.44;5094986;28;20032;-76
2022/06/08 01:17:04;;;;;;;27.25;24.58;;;;;;;16.12;100.00;99212.81;5095136;28;20024;-76
2022/06/08 01:19:34;;;;;;;24.20;21.70;;;;;;;16.09;100.00;99207.78;5094687;28;20024;-76
2022/06/08 01:22:02;;;;;;;26.92;24.05;;;;;;;16.10;100.00;99209.50;5095082;28;20510;-77
2022/06/08 01:24:28;;;;;;;26.90;24.20;;;;;;;16.07;100.00;99205.28;5094796;28;20061;-77
2022/06/08 01:27:00;;;;;;;26.10;23.48;;;;;;;16.09;100.00;99211.25;5094992;28;20032;-76
2022/06/08 01:29:31;;;;;;;25.98;23.35;;;;;;;16.06;100.00;99208.06;5094704;28;20020;-76
2022/06/08 01:32:18;;;;;;;25.35;22.58;;;;;;;16.07;100.00;99205.28;5095140;28;20024;-76
2022/06/08 01:35:06;;;;;;;25.65;23.02;;;;;;;16.06;100.00;99205.41;5095044;28;20386;-76
2022/06/08 01:37:40;;;;;;;25.23;22.63;;;;;;;16.06;100.00;99202.78;5094897;28;20149;-76
2022/06/08 01:40:09;;;;;;;26.60;23.77;;;;;;;16.03;100.00;99197.75;5094719;28;20030;-76
2022/06/08 01:42:56;;;;;;;26.02;22.60;;;;;;;16.01;100.00;99194.41;5094470;28;20032;-76
2022/06/08 01:45:44;;;;;;;26.08;23.27;;;;;;;15.95;100.00;99191.28;5094535;28;20043;-77
2022/06/08 01:48:21;;;;;;;24.90;22.23;;;;;;;15.96;100.00;99184.25;5091816;28;20028;-76
2022/06/08 01:50:54;;;;;;;24.27;21.63;;;;;;;15.90;100.00;99185.56;5094213;28;20024;-77
2022/06/08 01:53:45;;;;;;;25.08;21.77;;;;;;;15.95;100.00;99193.94;5094142;28;20028;-77
2022/06/08 01:56:13;;;;;;;27.80;24.92;;;;;;;15.95;100.00;99193.94;5094286;28;20032;-77
2022/06/08 01:59:13;;;;;;;25.92;23.23;;;;;;;15.96;100.00;99200.84;5094377;28;20070;-76
2022/06/08 02:01:48;;;;;;;26.27;22.67;;;;;;;15.87;100.00;99179.69;5047915;28;20084;-76
2022/06/08 02:04:35;;;;;;;24.90;22.33;;;;;;;15.87;100.00;99180.53;5031388;28;20025;-76
2022/06/08 02:07:09;;;;;;;25.65;22.80;;;;;;;15.91;100.00;99197.72;5031628;28;20044;-77
2022/06/08 02:09:43;;;;;;;24.98;22.38;;;;;;;15.86;100.00;99178.88;5031581;28;20025;-77
2022/06/08 02:12:11;;;;;;;28.67;25.60;;;;;;;15.87;100.00;99185.78;5031496;28;20041;-76
2022/06/08 02:14:47;;;;;;;26.63;23.88;;;;;;;15.91;100.00;99189.84;5031467;28;20404;-76
2022/06/08 02:17:33;;;;;;;29.63;26.42;;;;;;;15.89;100.00;99185.69;5014549;28;20079;-77
2022/06/08 02:20:16;;;;;;;28.90;24.48;;;;;;;15.87;100.00;99193.66;5031285;28;20587;-76
2022/06/08 02:22:47;;;;;;;27.58;24.65;;;;;;;15.87;100.00;99200.72;5031524;28;20036;-76
2022/06/08 02:25:18;;;;;;;27.50;24.70;;;;;;;15.85;100.00;99192.13;5031006;28;20041;-77
2022/06/08 02:27:51;;;;;;;26.17;23.48;;;;;;;15.85;100.00;99187.72;5031226;28;20061;-76
2022/06/08 02:30:21;;;;;;;25.40;22.70;;;;;;;15.80;100.00;99183.75;5030963;28;20095;-77
2022/06/08 02:35:57;;;;;;;23.27;20.98;;;;;;;15.76;100.00;99177.03;5031326;28;20095;-76
2022/06/08 02:38:30;;;;;;;23.20;20.83;;;;;;;15.74;100.00;99177.16;5063428;28;20140;-77
2022/06/08 02:40:57;;;;;;;22.20;19.80;;;;;;;15.75;100.00;99178.84;5093475;28;20191;-76
2022/06/08 02:43:38;;;;;;;22.70;20.30;;;;;;;15.75;100.00;99184.09;5093353;28;20084;-76
2022/06/08 02:46:10;;;;;;;;;;;;;;;15.77;100.00;99192.69;5094001;28;20027;-76
2022/06/08 02:48:36;;;;;;;21.60;19.50;;;;;;;15.76;100.00;99187.53;5093313;28;20061;-76
2022/06/08 02:51:02;;;;;;;22.02;19.83;;;;;;;15.69;100.00;99181.94;5093428;28;20059;-76
2022/06/08 02:53:28;;;;;;;21.77;19.58;;;;;;;15.70;100.00;99184.44;5093179;28;20031;-76
2022/06/08 02:56:15;;;;;;;20.48;18.38;;;;;;;15.75;100.00;99194.59;5093459;28;20028;-76
2022/06/08 02:58:56;;;;;;;22.63;20.33;;;;;;;15.75;100.00;99199.84;5075030;28;20028;-77
2022/06/08 03:01:42;;;;;;;22.65;20.30;;;;;;;15.76;100.00;99205.94;5092720;28;20028;-77
2022/06/08 03:04:14;;;;;;;21.90;19.70;;;;;;;15.71;100.00;99188.72;5092298;28;20421;-76
2022/06/08 03:06:53;;;;;;;22.63;20.27;;;;;;;15.70;100.00;99186.22;5093115;28;20101;-76
2022/06/08 03:09:20;;;;;;;22.75;20.35;;;;;;;15.76;100.00;99190.16;5092891;28;20020;-77
2022/06/08 03:11:53;;;;;;;21.17;18.92;;;;;;;15.71;100.00;99188.72;5092927;28;20119;-76
2022/06/08 03:14:19;;;;;;;22.95;20.58;;;;;;;15.68;100.00;99185.53;5092520;28;20057;-76
2022/06/08 03:16:52;;;;;;;21.08;18.80;;;;;;;15.75;100.00;99191.97;5093034;28;20088;-76
2022/06/08 03:19:18;;;;;;;19.63;17.58;;;;;;;15.75;100.00;99197.22;5074555;28;20024;-77
2022/06/08 03:21:45;;;;;;;21.25;19.10;;;;;;;15.78;100.00;99198.78;5092812;28;20092;-77
2022/06/08 03:24:11;;;;;;;22.13;19.92;;;;;;;15.80;100.00;99194.25;5092651;28;20417;-76
2022/06/08 03:26:41;;;;;;;20.85;18.73;;;;;;;15.77;100.00;99191.88;5092337;28;20024;-77
2022/06/08 03:29:07;;;;;;;22.02;19.42;;;;;;;15.79;100.00;99193.41;5092736;28;20467;-77
2022/06/08 03:31:32;;;;;;;20.23;17.92;;;;;;;15.80;100.00;99195.09;5092345;28;20028;-77
2022/06/08 03:33:58;;;;;;;20.52;18.50;;;;;;;15.85;100.00;99200.00;5092677;28;20028;-76
2022/06/08 03:36:23;;;;;;;20.90;18.73;;;;;;;15.81;100.00;99188.06;5092356;28;20360;-77
2022/06/08 03:38:49;;;;;;;20.65;18.45;;;;;;;15.87;100.00;99204.16;5092327;28;20052;-76
2022/06/08 03:41:14;;;;;;;21.92;19.55;;;;;;;15.84;100.00;99201.78;5092351;28;20024;-77
2022/06/08 03:43:40;;;;;;;21.67;19.58;;;;;;;15.81;100.00;99196.78;5074084;28;20024;-76
2022/06/08 03:46:08;;;;;;;21.83;19.35;;;;;;;15.88;100.00;99203.22;5092512;28;20495;-77
2022/06/08 03:48:34;;;;;;;21.85;19.65;;;;;;;15.86;100.00;99202.50;5092171;28;20024;-77
2022/06/08 03:51:01;;;;;;;20.77;18.58;;;;;;;15.91;100.00;99210.88;5092225;28;20055;-77
2022/06/08 03:53:34;;;;;;;20.95;17.40;;;;;;;15.94;100.00;99213.28;5091799;28;20031;-77
2022/06/08 03:56:03;;;;;;;19.08;17.27;;;;;;;15.95;100.00;99201.81;5092025;28;20043;-77
2022/06/08 03:58:29;;;;;;;19.10;17.20;;;;;;;15.99;100.00;99199.78;5092011;28;20032;-76
2022/06/08 04:00:54;;;;;;;20.65;18.58;;;;;;;16.05;100.00;99211.59;5092360;28;20549;-76
2022/06/08 04:03:20;;;;;;;20.45;18.25;;;;;;;16.01;100.00;99195.25;5091665;28;20390;-77
2022/06/08 04:05:46;;;;;;;20.02;17.95;;;;;;;16.08;100.00;99212.22;5092185;28;20034;-76
2022/06/08 04:08:11;;;;;;;20.15;18.13;;;;;;;16.11;100.00;99208.53;5092087;28;20032;-76
2022/06/08 04:10:37;;;;;;;20.35;18.23;;;;;;;16.07;100.00;99196.59;5091867;28;20040;-77
2022/06/08 04:13:03;;;;;;;19.15;17.15;;;;;;;16.15;100.00;99202.91;5092133;28;20031;-77
2022/06/08 04:15:43;;;;;;;18.20;16.30;;;;;;;16.12;100.00;99197.06;5073418;28;20032;-77
2022/06/08 04:18:15;;;;;;;19.60;16.95;;;;;;;16.18;100.00;99207.09;5091906;28;20030;-76
2022/06/08 04:20:44;;;;;;;18.58;16.27;;;;;;;16.20;100.00;99202.56;5091497;28;20070;-77
2022/06/08 04:23:10;;;;;;;18.45;16.15;;;;;;;16.19;100.00;99199.09;5091899;28;20032;-77
2022/06/08 04:25:37;;;;;;;19.77;17.50;;;;;;;16.28;100.00;99207.22;5091807;28;20037;-76
2022/06/08 04:28:03;;;;;;;19.17;17.27;;;;;;;16.33;100.00;99210.34;5091866;28;20024;-77
2022/06/08 04:30:28;;;;;;;18.92;17.13;;;;;;;16.32;100.00;99191.09;5091629;28;20028;-77
2022/06/08 04:32:54;;;;;;;17.88;16.13;;;;;;;16.44;100.00;99199.84;5091602;28;20685;-76
2022/06/08 04:35:20;;;;;;;17.75;15.98;;;;;;;16.48;100.00;99209.16;5091451;28;20024;-76
2022/06/08 04:37:46;;;;;;;18.77;16.88;;;;;;;16.45;100.00;99191.00;5091902;28;20020;-77
2022/06/08 04:40:15;;;;;;;18.92;16.85;;;;;;;16.57;100.00;99200.53;5091726;28;20035;-77
2022/06/08 04:42:41;;;;;;;20.75;18.65;;;;;;;16.64;100.00;99203.50;5091452;28;20016;-77
2022/06/08 04:45:09;;;;;;;19.00;17.05;;;;;;;16.65;100.00;99203.41;5091786;28;20032;-77
2022/06/08 04:47:35;;;;;;;17.67;15.77;;;;;;;16.64;100.00;99187.72;5091423;28;20513;-77
2022/06/08 04:50:00;;;;;;;19.55;17.00;;;;;;;16.77;100.00;99201.66;5091667;28;20111;-77
2022/06/08 04:52:26;;;;;;;23.50;19.38;;;;;;;16.84;100.00;99210.69;5091528;28;20360;-77
2022/06/08 04:54:51;;;;;;;18.83;16.60;;;;;;;16.77;100.00;99185.88;5091779;28;20020;-77
2022/06/08 04:57:17;;;;;;;19.05;17.15;;;;;;;16.91;100.00;99197.91;5091662;28;20020;-77
2022/06/08 04:59:43;;;;;;;18.08;16.17;;;;;;;16.92;100.00;99196.94;5091338;28;20031;-76
2022/06/08 05:02:09;;;;;;;18.90;16.42;;;;;;;16.94;100.00;99198.50;5091674;28;20050;-77
2022/06/08 05:04:34;;;;;;;18.60;16.65;;;;;;;16.98;100.00;99185.06;5091240;28;20047;-77
2022/06/08 05:07:00;;;;;;;19.23;17.23;;;;;;;17.06;100.00;99199.28;5091678;28;20460;-76
2022/06/08 05:09:26;;;;;;;21.38;18.17;;;;;;;17.14;100.00;99196.88;5091447;28;20067;-77
2022/06/08 05:11:51;;;;;;;18.52;16.58;;;;;;;17.15;100.00;99190.69;5091784;28;20086;-76
2022/06/08 05:14:17;;;;;;;19.95;18.02;;;;;;;17.25;100.00;99200.44;5091814;28;20028;-77
2022/06/08 05:16:42;;;;;;;18.77;16.83;;;;;;;17.29;100.00;99197.44;5091690;28;20467;-77
2022/06/08 05:19:08;;;;;;;19.00;17.20;;;;;;;17.40;100.00;99196.53;5091405;28;20397;-77
2022/06/08 05:21:33;;;;;;;22.20;19.85;;;;;;;17.46;100.00;99189.00;5091384;28;20085;-76
2022/06/08 05:23:58;;;;;;;19.15;17.02;;;;;;;17.53;100.00;99189.34;5091534;28;20085;-76
2022/06/08 05:26:24;;;;;;;19.75;17.75;;;;;;;17.64;100.00;99184.00;5092092;28;20478;-77
2022/06/08 05:28:49;;;;;;;18.20;16.40;;;;;;;17.78;100.00;99188.16;5095289;28;20510;-76
2022/06/08 05:31:15;;;;;;;18.67;16.90;;;;;;;17.95;100.00;99194.66;5076769;28;20510;-76
2022/06/08 05:33:40;;;;;;;20.23;18.05;;;;;;;18.04;100.00;99191.22;5094388;28;20110;-77
2022/06/08 05:36:06;;;;;;;18.50;16.60;;;;;;;18.30;100.00;99196.09;5094729;28;20065;-77
2022/06/08 05:38:32;;;;;;;16.75;15.05;;;;;;;18.56;100.00;99180.63;5094626;28;20349;-77
2022/06/08 05:40:58;;;;;;;16.75;15.15;;;;;;;18.91;100.00;99194.22;5094831;28;20360;-77
2022/06/08 05:43:23;;;;;;;16.98;15.27;;;;;;;19.21;100.00;99184.53;5094274;28;20069;-77
2022/06/08 05:45:49;;;;;;;15.13;13.63;;;;;;;19.39;100.00;99193.47;5094561;28;20658;-77
2022/06/08 05:48:16;;;;;;;15.75;14.00;;;;;;;19.65;100.00;99191.13;5094344;28;20020;-77
2022/06/08 05:50:43;;;;;;;14.20;12.80;;;;;;;19.81;100.00;99190.56;5094561;28;20532;-77
2022/06/08 05:53:09;;;;;;;16.88;15.10;;;;;;;19.78;100.00;99187.34;5094455;28;20036;-77
2022/06/08 05:55:35;;;;;;;18.65;16.10;;;;;;;19.64;100.00;99194.75;5094256;28;20482;-77
2022/06/08 05:58:00;;;;;;;16.25;14.60;;;;;;;19.57;100.00;99187.47;5094420;28;20028;-77
2022/06/08 06:00:28;;;;;;;15.65;14.25;;;;;;;19.53;100.00;99167.59;5094392;28;20024;-77
2022/06/08 06:02:55;;;;;;;14.95;13.55;;;;;;;19.81;100.00;99197.66;5093856;28;20048;-77
2022/06/08 06:05:26;;;;;;;14.63;13.23;;;;;;;20.30;100.00;99191.25;5094194;28;20028;-77
2022/06/08 06:07:52;;;;;;;14.02;11.98;;;;;;;20.71;100.00;99201.56;5094343;28;20032;-77
2022/06/08 06:10:19;;;;;;;12.40;11.10;;;;;;;21.32;100.00;99183.25;5094188;28;20027;-77
2022/06/08 06:12:44;;;;;;;14.30;12.90;;;;;;;22.20;100.00;99185.88;5093877;28;20107;-77
2022/06/08 06:15:12;;;;;;;13.52;12.23;;;;;;;22.72;100.00;99192.97;5093978;28;20054;-77
2022/06/08 06:17:38;;;;;;;13.35;11.95;;;;;;;23.76;100.00;99187.19;5093688;28;20111;-77
2022/06/08 06:20:06;;;;;;;12.05;10.85;;;;;;;24.83;98.15;99189.44;5094334;28;20069;-77
2022/06/08 06:22:33;;;;;;;15.05;11.10;;;;;;;25.55;90.94;99177.66;5093666;28;20042;-77
2022/06/08 06:24:59;;;;;;;10.85;9.80;;;;;;;25.98;83.89;99177.97;5093941;28;20082;-77
2022/06/08 06:27:24;;;;;;;10.13;8.88;;;;;;;26.46;82.19;99181.16;5093786;28;20028;-77
2022/06/08 06:29:51;;;;;;;9.57;7.72;;;;;;;28.87;77.01;99174.03;5093483;28;20047;-77
2022/06/08 06:32:24;;;;;;;7.60;6.90;;;;;;;31.92;65.19;99172.47;5093958;28;20460;-77
2022/06/08 06:34:49;;;;;;;7.38;6.68;;;;;;;34.85;55.11;99175.16;5093612;28;20040;-78
2022/06/08 06:37:15;;;;;;;6.30;5.72;;;;;;;36.50;44.84;99177.63;5093593;28;20114;-78
2022/06/08 06:39:40;;;;;;;5.50;5.00;;;;;;;37.15;39.01;99164.00;5093650;28;20032;-78
2022/06/08 06:42:13;;;;;;;5.20;4.60;;;;;;;38.22;36.51;99177.59;5093479;28;20078;-77
2022/06/08 06:44:39;;;;;;;5.03;4.63;;;;;;;39.52;33.47;99178.56;5093036;28;20047;-78
2022/06/08 06:47:04;;;;;;;8.32;4.63;;;;;;;40.88;29.98;99184.00;5093823;28;20460;-77
2022/06/08 06:49:30;;;;;;;4.80;4.30;;;;;;;42.38;27.76;99177.03;5093315;28;20024;-78
2022/06/08 06:51:57;;;;;;;4.15;3.47;;;;;;;43.42;25.08;99174.22;5093406;28;20105;-78
2022/06/08 06:54:23;;;;;;;4.25;3.85;;;;;;;42.83;24.51;99178.38;5093201;28;20036;-77
2022/06/08 06:56:49;;;;;;;5.25;3.92;;;;;;;41.07;25.83;99168.59;5093006;28;20032;-78
2022/06/08 06:59:14;;;;;;;5.00;4.15;;;;;;;40.64;26.99;99162.81;5092967;28;20451;-77
2022/06/08 07:01:41;;;;;;;5.00;3.95;;;;;;;41.50;25.56;99170.75;5092690;28;20040;-78
2022/06/08 07:04:06;;;;;;;6.45;4.20;;;;;;;43.31;23.62;99175.47;5092797;28;20125;-78
2022/06/08 07:06:32;;;;;;;4.45;4.05;;;;;;;44.57;22.11;99185.25;5092819;28;20115;-76
2022/06/08 07:09:00;;;;;;;4.97;4.28;;;;;;;45.47;20.02;99173.63;5092995;28;20386;-75
2022/06/08 07:11:35;;;;;;;4.22;3.92;;;;;;;46.43;18.87;99166.66;5092980;28;20037;-75
2022/06/08 07:14:03;;;;;;;4.88;4.03;;;;;;;46.82;18.03;99167.69;5093110;28;20078;-76
2022/06/08 07:16:29;;;;;;;4.93;4.32;;;;;;;47.58;18.09;99161.66;5074798;28;20024;-76
2022/06/08 07:18:55;;;;;;;4.95;3.67;;;;;;;48.41;16.67;99161.22;5092719;28;20040;-76
2022/06/08 07:21:20;;;;;;;3.38;3.08;;;;;;;49.02;16.44;99158.03;5092809;28;20043;-76
2022/06/08 07:23:46;;;;;;;5.47;3.10;;;;;;;48.94;15.57;99162.47;5092450;28;20020;-76
2022/06/08 07:26:12;;;;;;;4.05;3.47;;;;;;;47.04;16.21;99150.22;5092645;28;20409;-76
2022/06/08 07:28:38;;;;;;;4.85;3.38;;;;;;;45.73;17.38;99143.53;5092656;28;20032;-76
2022/06/08 07:31:04;;;;;;;3.35;3.05;;;;;;;44.96;17.61;99139.91;5092778;28;20024;-76
2022/06/08 07:33:29;;;;;;;3.13;2.83;;;;;;;44.74;18.16;99137.94;5092650;28;20099;-76
2022/06/08 07:35:55;;;;;;;2.90;2.70;;;;;;;43.84;19.90;99136.75;5092396;28;20028;-75
2022/06/08 07:38:21;;;;;;;3.28;2.80;;;;;;;44.25;19.27;99147.78;5092464;28;20028;-75
2022/06/08 07:40:47;;;;;;;3.30;2.90;;;;;;;45.79;18.10;99147.75;5092187;28;20020;-76
2022/06/08 07:43:13;;;;;;;4.35;3.25;;;;;;;47.45;15.96;99149.69;5092567;28;20020;-75
2022/06/08 07:45:39;;;;;;;3.10;2.80;;;;;;;47.99;16.06;99147.25;5092457;28;20024;-76
2022/06/08 07:50:48;;;;;;;7.53;2.42;;;;;;;45.62;17.39;99148.50;5091574;28;20132;-76
2022/06/08 07:53:15;;;;;;;3.03;2.70;;;;;;;44.63;17.89;99133.78;5092090;28;20054;-76
2022/06/08 07:55:41;;;;;;;3.20;2.90;;;;;;;43.46;19.35;99139.63;5091945;28;20515;-76
2022/06/08 07:58:07;;;;;;;4.57;3.00;;;;;;;42.25;20.30;99134.75;5092167;28;20103;-76
2022/06/08 08:00:33;;;;;;;6.80;3.28;;;;;;;42.15;20.49;99135.69;5092080;28;20024;-76
2022/06/08 08:02:58;;;;;;;4.57;2.90;;;;;;;42.61;19.29;99135.13;5092028;28;20127;-76
2022/06/08 08:05:23;;;;;;;4.25;3.13;;;;;;;43.01;19.80;99135.66;5092100;28;20031;-76
2022/06/08 08:07:50;;;;;;;3.78;2.72;;;;;;;43.16;19.87;99140.13;5091792;28;20356;-76
2022/06/08 08:10:23;;;;;;;2.83;2.63;;;;;;;42.72;19.74;99136.63;5092261;28;20024;-76
2022/06/08 08:12:50;;;;;;;3.67;2.85;;;;;;;41.40;20.98;99140.81;5091920;28;20028;-76
2022/06/08 08:15:16;;;;;;;4.07;2.80;;;;;;;39.75;22.53;99139.91;5091961;28;20414;-75
2022/06/08 08:17:42;;;;;;;6.15;2.90;;;;;;;37.81;24.86;99127.59;5091732;28;20028;-75
2022/06/08 08:20:11;;;;;;;3.35;2.70;;;;;;;35.95;27.17;99116.94;5092241;28;20031;-75
2022/06/08 08:22:36;;;;;;;3.83;2.60;;;;;;;34.59;28.75;99128.66;5091846;28;20040;-75
2022/06/08 08:25:02;;;;;;;4.13;3.28;;;;;;;33.50;30.01;99131.94;5073940;28;20489;-75
2022/06/08 08:27:28;;;;;;;3.47;3.17;;;;;;;32.49;31.20;99114.66;5091828;28;20081;-77
2022/06/08 08:29:53;;;;;;;8.48;3.42;;;;;;;31.51;32.49;99123.47;5091724;28;20028;-74
2022/06/08 08:32:19;;;;;;;3.65;3.20;;;;;;;30.96;33.95;99142.06;5091924;28;20415;-75
2022/06/08 08:34:44;;;;;;;7.30;3.30;;;;;;;30.40;35.02;99126.59;5091542;28;20069;-77
2022/06/08 08:37:09;;;;;;;3.17;2.90;;;;;;;30.15;36.95;99133.69;5091642;28;20039;-77
2022/06/08 08:39:36;;;;;;;3.55;3.22;;;;;;;29.91;37.96;99119.88;5091734;28;20048;-77
2022/06/08 08:42:21;;;;;;;4.15;2.83;;;;;;;29.62;37.43;99115.78;5091853;28;20103;-74
2022/06/08 08:45:12;;;;;;;3.67;3.25;;;;;;;29.29;38.63;99126.50;5091520;28;20023;-77
2022/06/08 08:47:53;;;;;;;7.47;4.00;;;;;;;29.09;39.24;99126.47;5091676;28;20028;-75
2022/06/08 08:50:34;;;;;;;3.95;2.85;;;;;;;29.01;39.96;99129.34;5091800;28;20372;-77
2022/06/08 08:53:09;;;;;;;4.15;2.90;;;;;;;28.94;40.66;99113.19;5091603;28;20032;-77
2022/06/08 08:55:44;;;;;;;5.03;3.30;;;;;;;28.87;40.09;99111.53;5091611;28;20428;-77
2022/06/08 08:58:16;;;;;;;6.57;3.45;;;;;;;28.83;40.75;99114.63;5091801;28;20085;-77
2022/06/08 09:00:43;;;;;;;3.53;3.20;;;;;;;28.63;40.23;99118.25;5091617;28;20051;-74
2022/06/08 09:03:18;;;;;;;4.32;3.92;;;;;;;28.37;40.67;99111.78;5095061;28;20047;-75
2022/06/08 09:05:46;;;;;;;9.95;3.63;;;;;;;28.34;41.77;99117.50;5095183;28;20459;-77
2022/06/08 09:08:13;;;;;;;5.80;3.72;;;;;;;28.44;42.05;99123.31;5095374;28;20482;-77
2022/06/08 09:10:39;;;;;;;5.32;3.80;;;;;;;28.20;41.74;99115.78;5095269;28;20030;-77
2022/06/08 09:13:05;;;;;;;4.13;3.72;;;;;;;28.08;41.86;99102.94;5095403;28;20110;-77
2022/06/08 09:15:46;;;;;;;7.30;4.35;;;;;;;27.94;42.42;99101.22;5095304;28;20077;-77
2022/06/08 09:18:30;;;;;;;6.80;3.75;;;;;;;27.90;42.52;99115.22;5095152;28;20471;-77
2022/06/08 09:20:56;;;;;;;4.95;3.78;;;;;;;27.69;43.30;99106.19;5094936;28;20813;-77
2022/06/08 09:23:31;;;;;;;3.75;3.30;;;;;;;27.72;44.56;99112.97;5095072;28;20421;-77
2022/06/08 09:26:04;;;;;;;3.38;3.00;;;;;;;27.76;44.59;99115.09;5094966;28;20032;-77
2022/06/08 09:28:32;;;;;;;5.00;3.33;;;;;;;27.66;44.47;99119.94;5095023;28;20067;-77
2022/06/08 09:30:58;;;;;;;5.45;3.72;;;;;;;27.45;44.64;99117.31;5094740;28;20422;-77
2022/06/08 09:33:27;;;;;;;7.13;4.05;;;;;;;27.32;45.11;99110.00;5094787;28;20036;-77
2022/06/08 09:36:02;;;;;;;4.18;3.75;;;;;;;27.17;45.00;99109.22;5094743;28;20016;-77
2022/06/08 09:38:32;;;;;;;4.75;3.45;;;;;;;27.07;44.92;99107.69;5094870;28;20036;-77
2022/06/08 09:40:57;;;;;;;6.22;3.67;;;;;;;27.04;46.43;99108.06;5094490;28;20395;-77
2022/06/08 09:43:49;;;;;;;14.10;7.25;;;;;;;27.05;45.66;99106.19;5076486;28;20032;-77
2022/06/08 09:51:25;;;;;;;6.25;4.20;;;;;;;26.96;45.82;99105.50;5094614;28;20540;-77
2022/06/08 09:52:20;;;;;;;5.15;3.65;;;;;;;26.68;46.35;99088.56;5094497;28;20085;-77
2022/06/08 09:55:18;;;;;;;6.57;3.92;;;;;;;26.70;46.59;99103.38;5094357;28;20636;-77
2022/06/08 09:57:58;;;;;;;4.22;3.13;;;;;;;26.74;47.90;99093.16;5094275;28;20072;-77
2022/06/08 10:00:43;;;;;;;;;;;;;;;26.79;48.46;99094.22;5094788;28;20024;-77
2022/06/08 10:03:23;;;;;;;4.28;3.35;;;;;;;26.81;48.96;99092.22;5094064;28;19984;-77
2022/06/08 10:06:02;;;;;;;14.93;3.38;;;;;;;26.86;49.17;99078.28;5094103;28;20020;-77
2022/06/08 10:08:38;;;;;;;4.65;2.97;;;;;;;26.94;48.25;99078.16;5094232;28;20047;-77
2022/06/08 10:14:08;;;;;;;4.45;3.72;;;;;;;26.85;45.75;99088.13;5093368;28;20097;-77
2022/06/08 10:16:38;;;;;;;4.75;3.60;;;;;;;26.84;45.51;99085.63;5094169;28;20031;-77
2022/06/08 10:19:08;;;;;;;;;;;;;;;26.78;45.26;99075.72;5094750;28;20093;-77
2022/06/08 10:21:39;;;;;;;3.95;2.97;;;;;;;26.56;45.55;99070.34;5094195;28;19908;-77
2022/06/08 10:24:27;;;;;;;4.60;3.50;;;;;;;26.68;46.54;99073.38;5093717;28;20085;-77
2022/06/08 10:27:03;;;;;;;4.88;3.63;;;;;;;26.50;46.56;99076.44;5093549;28;20056;-77
2022/06/08 10:29:51;;;;;;;5.03;4.03;;;;;;;26.33;46.62;99075.78;5093806;28;20083;-77
2022/06/08 10:32:23;;;;;;;4.07;3.67;;;;;;;26.26;47.19;99063.41;5093715;28;20472;-77
2022/06/08 10:34:53;;;;;;;6.18;3.40;;;;;;;26.27;47.82;99060.53;5093554;28;20145;-77
2022/06/08 10:37:36;;;;;;;5.72;2.80;;;;;;;26.43;47.39;99059.50;5093686;28;20024;-77
2022/06/08 10:40:08;;;;;;;4.00;3.38;;;;;;;26.60;45.33;99065.47;5075153;28;20368;-77
2022/06/08 10:42:42;;;;;;;5.57;2.83;;;;;;;26.55;43.22;99071.38;5093720;28;20081;-77
2022/06/08 10:45:20;;;;;;;3.28;2.92;;;;;;;26.53;42.34;99076.06;5093572;28;20103;-77
2022/06/08 10:47:54;;;;;;;4.55;3.25;;;;;;;26.38;41.93;99077.94;5093139;28;20034;-77
2022/06/08 10:50:48;;;;;;;3.65;2.72;;;;;;;26.29;42.66;99069.16;5093345;28;20491;-77
2022/06/08 10:56:34;;;;;;;4.03;2.40;;;;;;;26.04;39.48;99058.00;4991472;28;20516;-77
2022/06/08 10:59:03;;;;;;;3.00;2.05;;;;;;;25.91;40.07;99071.13;4991077;28;20413;-77
2022/06/08 11:01:37;;;;;;;3.38;2.50;;;;;;;25.83;40.18;99063.22;4990970;28;20046;-77
2022/06/08 11:04:06;;;;;;;3.03;2.45;;;;;;;25.85;40.68;99055.88;4991033;28;20556;-77
2022/06/08 11:07:02;;;;;;;2.85;1.88;;;;;;;25.92;38.35;99062.16;4991146;28;20038;-77
2022/06/08 11:09:34;;;;;;;1.98;1.88;;;;;;;26.01;38.38;99070.88;4991196;28;20058;-77
2022/06/08 11:12:11;;;;;;;3.63;2.53;;;;;;;25.95;38.28;99064.41;4991033;28;20022;-77
2022/06/08 11:14:52;;;;;;;4.85;2.50;;;;;;;25.93;40.62;99065.63;4991068;28;20085;-77
2022/06/08 11:17:31;;;;;;;3.15;2.20;;;;;;;25.93;42.10;99060.31;4990890;28;20486;-77
2022/06/08 11:20:21;;;;;;;3.08;2.28;;;;;;;26.03;42.34;99063.50;4990767;28;20042;-77
2022/06/08 11:22:55;;;;;;;4.95;2.95;;;;;;;26.12;41.43;99065.91;4990620;28;20038;-77
2022/06/08 11:25:26;;;;;;;2.90;2.20;;;;;;;26.12;40.82;99059.72;4990404;28;20038;-77
2022/06/08 11:28:27;;;;;;;2.65;2.40;;;;;;;26.11;40.77;99058.91;4990494;28;20030;-77
2022/06/08 11:30:56;;;;;;;7.18;2.42;;;;;;;26.17;40.32;99062.69;5077973;28;20035;-77
2022/06/08 11:33:23;;;;;;;2.35;2.08;;;;;;;26.16;37.78;99054.84;5092735;28;20055;-77
2022/06/08 11:36:10;;;;;;;3.15;2.20;;;;;;;26.16;37.11;99063.66;5092499;28;20031;-77
2022/06/08 11:38:48;;;;;;;2.90;2.70;;;;;;;26.20;39.42;99058.78;5092292;28;20027;-77
2022/06/08 11:41:30;;;;;;;4.15;3.30;;;;;;;26.20;41.63;99050.78;5092608;28;20028;-77
2022/06/08 11:44:09;;;;;;;4.30;2.85;;;;;;;26.20;41.65;99058.78;5091789;28;20047;-77
2022/06/08 11:46:39;;;;;;;4.05;2.92;;;;;;;26.28;42.44;99040.00;5090712;28;20035;-77
2022/06/08 11:49:25;;;;;;;4.00;2.40;;;;;;;26.25;41.72;99046.56;5091908;28;20024;-77
2022/06/08 11:51:50;;;;;;;2.65;2.35;;;;;;;26.41;42.45;99039.31;5090448;28;20032;-77
2022/06/08 11:54:21;;;;;;;3.75;2.60;;;;;;;26.55;41.49;99046.53;5091902;28;20093;-77